sensor_id;sensor_type;location;lat;lon;timestamp;temperature;humidity
71084;DHT22;58741;52.672;13.548;2022-08-25T00:01:28;19.90;89.90
71084;DHT22;58741;52.672;13.548;2022-08-25T00:03:55;19.90;90.20
71084;DHT22;58741;52.672;13.548;2022-08-25T00:06:21;19.80;90.10
71084;DHT22;58741;52.672;13.548;2022-08-25T00:08:46;19.80;90.00
71084;DHT22;58741;52.672;13.548;2022-08-25T00:11:16;19.80;90.00
71084;DHT22;58741;52.672;13.548;2022-08-25T00:13:44;19.80;90.00
71084;DHT22;58741;52.672;13.548;2022-08-25T00:16:11;19.80;89.90
71084;DHT22;58741;52.672;13.548;2022-08-25T00:18:41;19.70;90.10
71084;DHT22;58741;52.672;13.548;2022-08-25T00:21:09;19.70;90.10
71084;DHT22;58741;52.672;13.548;2022-08-25T00:23:34;19.70;90.10
71084;DHT22;58741;52.672;13.548;2022-08-25T00:26:01;19.70;90.20
71084;DHT22;58741;52.672;13.548;2022-08-25T00:28:27;19.70;90.30
71084;DHT22;58741;52.672;13.548;2022-08-25T00:30:54;19.60;90.50
71084;DHT22;58741;52.672;13.548;2022-08-25T00:33:20;19.60;90.30
71084;DHT22;58741;52.672;13.548;2022-08-25T00:35:45;19.60;90.30
71084;DHT22;58741;52.672;13.548;2022-08-25T00:38:12;19.60;90.20
71084;DHT22;58741;52.672;13.548;2022-08-25T00:40:39;19.60;90.30
71084;DHT22;58741;52.672;13.548;2022-08-25T00:43:06;19.50;90.40
71084;DHT22;58741;52.672;13.548;2022-08-25T00:45:34;19.50;90.40
71084;DHT22;58741;52.672;13.548;2022-08-25T00:48:00;19.50;90.40
71084;DHT22;58741;52.672;13.548;2022-08-25T00:50:28;19.50;90.40
71084;DHT22;58741;52.672;13.548;2022-08-25T00:52:57;19.50;90.40
71084;DHT22;58741;52.672;13.548;2022-08-25T00:55:29;19.50;90.50
71084;DHT22;58741;52.672;13.548;2022-08-25T00:57:59;19.50;90.50
71084;DHT22;58741;52.672;13.548;2022-08-25T01:00:34;19.40;90.60
71084;DHT22;58741;52.672;13.548;2022-08-25T01:03:00;19.40;90.70
71084;DHT22;58741;52.672;13.548;2022-08-25T01:05:26;19.40;90.70
71084;DHT22;58741;52.672;13.548;2022-08-25T01:07:53;19.40;91.10
71084;DHT22;58741;52.672;13.548;2022-08-25T01:10:20;19.40;91.00
71084;DHT22;58741;52.672;13.548;2022-08-25T01:12:46;19.30;90.90
71084;DHT22;58741;52.672;13.548;2022-08-25T01:15:14;19.30;90.90
71084;DHT22;58741;52.672;13.548;2022-08-25T01:17:52;19.30;91.00
71084;DHT22;58741;52.672;13.548;2022-08-25T01:20:20;19.30;91.00
71084;DHT22;58741;52.672;13.548;2022-08-25T01:22:47;19.30;91.00
71084;DHT22;58741;52.672;13.548;2022-08-25T01:25:28;19.30;91.10
71084;DHT22;58741;52.672;13.548;2022-08-25T01:27:55;19.20;91.10
71084;DHT22;58741;52.672;13.548;2022-08-25T01:30:22;19.20;91.10
71084;DHT22;58741;52.672;13.548;2022-08-25T01:32:47;19.20;91.40
71084;DHT22;58741;52.672;13.548;2022-08-25T01:35:13;19.20;91.20
71084;DHT22;58741;52.672;13.548;2022-08-25T01:37:39;19.20;91.30
71084;DHT22;58741;52.672;13.548;2022-08-25T01:40:05;19.20;91.60
71084;DHT22;58741;52.672;13.548;2022-08-25T01:42:46;19.20;91.40
71084;DHT22;58741;52.672;13.548;2022-08-25T01:45:12;19.20;91.40
71084;DHT22;58741;52.672;13.548;2022-08-25T01:47:38;19.20;91.40
71084;DHT22;58741;52.672;13.548;2022-08-25T01:50:05;19.10;91.50
71084;DHT22;58741;52.672;13.548;2022-08-25T01:52:57;19.10;91.40
71084;DHT22;58741;52.672;13.548;2022-08-25T01:55:24;19.10;91.60
71084;DHT22;58741;52.672;13.548;2022-08-25T01:57:49;19.10;91.40
71084;DHT22;58741;52.672;13.548;2022-08-25T02:00:16;19.10;91.50
71084;DHT22;58741;52.672;13.548;2022-08-25T02:02:42;19.10;91.40
71084;DHT22;58741;52.672;13.548;2022-08-25T02:05:09;19.10;91.40
71084;DHT22;58741;52.672;13.548;2022-08-25T02:07:35;19.00;91.50
71084;DHT22;58741;52.672;13.548;2022-08-25T02:10:02;19.00;91.20
71084;DHT22;58741;52.672;13.548;2022-08-25T02:12:29;19.00;91.40
71084;DHT22;58741;52.672;13.548;2022-08-25T02:14:57;19.00;91.40
71084;DHT22;58741;52.672;13.548;2022-08-25T02:17:22;19.00;91.40
71084;DHT22;58741;52.672;13.548;2022-08-25T02:19:48;19.00;91.50
71084;DHT22;58741;52.672;13.548;2022-08-25T02:22:14;19.00;91.50
71084;DHT22;58741;52.672;13.548;2022-08-25T02:24:40;19.00;91.40
71084;DHT22;58741;52.672;13.548;2022-08-25T02:27:06;19.00;91.50
71084;DHT22;58741;52.672;13.548;2022-08-25T02:29:31;19.00;91.40
71084;DHT22;58741;52.672;13.548;2022-08-25T02:31:58;19.00;91.50
71084;DHT22;58741;52.672;13.548;2022-08-25T02:34:24;18.90;91.80
71084;DHT22;58741;52.672;13.548;2022-08-25T02:36:50;18.90;91.70
71084;DHT22;58741;52.672;13.548;2022-08-25T02:39:15;18.90;91.80
71084;DHT22;58741;52.672;13.548;2022-08-25T02:41:41;18.90;91.80
71084;DHT22;58741;52.672;13.548;2022-08-25T02:44:08;18.90;91.70
71084;DHT22;58741;52.672;13.548;2022-08-25T02:46:34;18.90;91.50
71084;DHT22;58741;52.672;13.548;2022-08-25T02:49:00;18.90;91.60
71084;DHT22;58741;52.672;13.548;2022-08-25T02:51:27;18.80;91.70
71084;DHT22;58741;52.672;13.548;2022-08-25T02:53:55;18.80;91.70
71084;DHT22;58741;52.672;13.548;2022-08-25T02:56:22;18.90;92.00
71084;DHT22;58741;52.672;13.548;2022-08-25T02:58:49;18.90;92.10
71084;DHT22;58741;52.672;13.548;2022-08-25T03:01:15;18.80;92.10
71084;DHT22;58741;52.672;13.548;2022-08-25T03:03:42;18.80;92.00
71084;DHT22;58741;52.672;13.548;2022-08-25T03:06:10;18.80;92.10
71084;DHT22;58741;52.672;13.548;2022-08-25T03:08:36;18.80;92.40
71084;DHT22;58741;52.672;13.548;2022-08-25T03:11:03;18.80;92.30
71084;DHT22;58741;52.672;13.548;2022-08-25T03:13:29;18.80;92.40
71084;DHT22;58741;52.672;13.548;2022-08-25T03:15:54;18.80;92.40
71084;DHT22;58741;52.672;13.548;2022-08-25T03:18:20;18.80;92.40
71084;DHT22;58741;52.672;13.548;2022-08-25T03:20:47;18.70;92.60
71084;DHT22;58741;52.672;13.548;2022-08-25T03:23:12;18.70;92.50
71084;DHT22;58741;52.672;13.548;2022-08-25T03:25:39;18.70;92.50
71084;DHT22;58741;52.672;13.548;2022-08-25T03:28:24;18.70;92.30
71084;DHT22;58741;52.672;13.548;2022-08-25T03:30:51;18.70;92.40
71084;DHT22;58741;52.672;13.548;2022-08-25T03:33:17;18.70;92.30
71084;DHT22;58741;52.672;13.548;2022-08-25T03:35:44;18.70;92.50
71084;DHT22;58741;52.672;13.548;2022-08-25T03:38:10;18.70;92.50
71084;DHT22;58741;52.672;13.548;2022-08-25T03:40:36;18.70;92.50
71084;DHT22;58741;52.672;13.548;2022-08-25T03:43:02;18.70;92.70
71084;DHT22;58741;52.672;13.548;2022-08-25T03:45:28;18.70;92.80
71084;DHT22;58741;52.672;13.548;2022-08-25T03:47:54;18.70;92.80
71084;DHT22;58741;52.672;13.548;2022-08-25T03:50:21;18.70;92.80
71084;DHT22;58741;52.672;13.548;2022-08-25T03:52:54;18.70;93.00
71084;DHT22;58741;52.672;13.548;2022-08-25T03:55:22;18.70;93.00
71084;DHT22;58741;52.672;13.548;2022-08-25T03:57:48;18.70;92.60
71084;DHT22;58741;52.672;13.548;2022-08-25T04:00:14;18.70;92.80
71084;DHT22;58741;52.672;13.548;2022-08-25T04:02:40;18.70;92.80
71084;DHT22;58741;52.672;13.548;2022-08-25T04:05:06;18.70;92.70
71084;DHT22;58741;52.672;13.548;2022-08-25T04:07:32;18.70;92.70
71084;DHT22;58741;52.672;13.548;2022-08-25T04:09:58;18.70;93.00
71084;DHT22;58741;52.672;13.548;2022-08-25T04:12:24;18.70;93.00
71084;DHT22;58741;52.672;13.548;2022-08-25T04:14:50;18.70;93.20
71084;DHT22;58741;52.672;13.548;2022-08-25T04:17:16;18.70;93.40
71084;DHT22;58741;52.672;13.548;2022-08-25T04:19:41;18.70;93.20
71084;DHT22;58741;52.672;13.548;2022-08-25T04:22:07;18.70;93.40
71084;DHT22;58741;52.672;13.548;2022-08-25T04:24:32;18.70;93.30
71084;DHT22;58741;52.672;13.548;2022-08-25T04:26:58;18.70;93.40
71084;DHT22;58741;52.672;13.548;2022-08-25T04:29:24;18.70;93.50
71084;DHT22;58741;52.672;13.548;2022-08-25T04:31:51;18.70;93.30
71084;DHT22;58741;52.672;13.548;2022-08-25T04:34:19;18.70;93.70
71084;DHT22;58741;52.672;13.548;2022-08-25T04:36:45;18.70;93.60
71084;DHT22;58741;52.672;13.548;2022-08-25T04:39:12;18.70;93.90
71084;DHT22;58741;52.672;13.548;2022-08-25T04:41:37;18.70;93.90
71084;DHT22;58741;52.672;13.548;2022-08-25T04:44:04;18.70;93.50
71084;DHT22;58741;52.672;13.548;2022-08-25T04:46:32;18.70;94.00
71084;DHT22;58741;52.672;13.548;2022-08-25T04:48:59;18.70;93.80
71084;DHT22;58741;52.672;13.548;2022-08-25T04:51:35;18.80;94.00
71084;DHT22;58741;52.672;13.548;2022-08-25T04:54:04;18.80;94.00
71084;DHT22;58741;52.672;13.548;2022-08-25T04:56:31;18.80;93.90
71084;DHT22;58741;52.672;13.548;2022-08-25T04:59:05;18.80;93.80
71084;DHT22;58741;52.672;13.548;2022-08-25T05:01:31;18.80;93.80
71084;DHT22;58741;52.672;13.548;2022-08-25T05:03:59;18.80;93.80
71084;DHT22;58741;52.672;13.548;2022-08-25T05:06:26;18.80;93.70
71084;DHT22;58741;52.672;13.548;2022-08-25T05:08:52;18.80;94.00
71084;DHT22;58741;52.672;13.548;2022-08-25T05:11:18;18.90;94.00
71084;DHT22;58741;52.672;13.548;2022-08-25T05:13:46;18.90;93.90
71084;DHT22;58741;52.672;13.548;2022-08-25T05:16:12;18.90;93.90
71084;DHT22;58741;52.672;13.548;2022-08-25T05:18:37;18.90;94.00
71084;DHT22;58741;52.672;13.548;2022-08-25T05:21:07;18.90;93.80
71084;DHT22;58741;52.672;13.548;2022-08-25T05:23:34;18.90;93.80
71084;DHT22;58741;52.672;13.548;2022-08-25T05:26:12;18.90;94.20
71084;DHT22;58741;52.672;13.548;2022-08-25T05:28:38;19.00;94.20
71084;DHT22;58741;52.672;13.548;2022-08-25T05:31:09;19.00;94.00
71084;DHT22;58741;52.672;13.548;2022-08-25T05:33:36;19.00;94.10
71084;DHT22;58741;52.672;13.548;2022-08-25T05:36:03;19.00;93.80
71084;DHT22;58741;52.672;13.548;2022-08-25T05:38:29;19.00;94.20
71084;DHT22;58741;52.672;13.548;2022-08-25T05:41:07;19.00;94.10
71084;DHT22;58741;52.672;13.548;2022-08-25T05:43:36;19.10;94.10
71084;DHT22;58741;52.672;13.548;2022-08-25T05:46:02;19.10;94.20
71084;DHT22;58741;52.672;13.548;2022-08-25T05:48:28;19.10;94.00
71084;DHT22;58741;52.672;13.548;2022-08-25T05:50:55;19.10;93.90
71084;DHT22;58741;52.672;13.548;2022-08-25T05:53:22;19.10;94.20
71084;DHT22;58741;52.672;13.548;2022-08-25T05:55:49;19.10;94.10
71084;DHT22;58741;52.672;13.548;2022-08-25T05:58:15;19.10;94.30
71084;DHT22;58741;52.672;13.548;2022-08-25T06:00:40;19.10;94.10
71084;DHT22;58741;52.672;13.548;2022-08-25T06:03:06;19.10;94.00
71084;DHT22;58741;52.672;13.548;2022-08-25T06:05:32;19.20;94.10
71084;DHT22;58741;52.672;13.548;2022-08-25T06:07:58;19.20;94.60
71084;DHT22;58741;52.672;13.548;2022-08-25T06:10:24;19.20;94.40
71084;DHT22;58741;52.672;13.548;2022-08-25T06:12:50;19.20;94.50
71084;DHT22;58741;52.672;13.548;2022-08-25T06:15:19;19.20;94.20
71084;DHT22;58741;52.672;13.548;2022-08-25T06:17:46;19.20;94.40
71084;DHT22;58741;52.672;13.548;2022-08-25T06:20:24;19.20;94.60
71084;DHT22;58741;52.672;13.548;2022-08-25T06:22:52;19.30;94.30
71084;DHT22;58741;52.672;13.548;2022-08-25T06:25:20;19.30;94.30
71084;DHT22;58741;52.672;13.548;2022-08-25T06:27:46;19.30;94.20
71084;DHT22;58741;52.672;13.548;2022-08-25T06:30:15;19.30;94.10
71084;DHT22;58741;52.672;13.548;2022-08-25T06:32:42;19.30;94.30
71084;DHT22;58741;52.672;13.548;2022-08-25T06:35:11;19.40;94.50
71084;DHT22;58741;52.672;13.548;2022-08-25T06:37:37;19.40;94.50
71084;DHT22;58741;52.672;13.548;2022-08-25T06:40:04;19.40;94.50
71084;DHT22;58741;52.672;13.548;2022-08-25T06:42:30;19.40;94.20
71084;DHT22;58741;52.672;13.548;2022-08-25T06:44:56;19.50;94.30
71084;DHT22;58741;52.672;13.548;2022-08-25T06:47:21;19.50;94.50
71084;DHT22;58741;52.672;13.548;2022-08-25T06:49:47;19.50;94.20
71084;DHT22;58741;52.672;13.548;2022-08-25T06:52:13;19.50;94.20
71084;DHT22;58741;52.672;13.548;2022-08-25T06:54:39;19.60;94.30
71084;DHT22;58741;52.672;13.548;2022-08-25T06:57:05;19.60;94.50
71084;DHT22;58741;52.672;13.548;2022-08-25T06:59:32;19.70;94.40
71084;DHT22;58741;52.672;13.548;2022-08-25T07:01:58;19.70;94.40
71084;DHT22;58741;52.672;13.548;2022-08-25T07:04:24;19.70;94.60
71084;DHT22;58741;52.672;13.548;2022-08-25T07:06:50;19.70;94.40
71084;DHT22;58741;52.672;13.548;2022-08-25T07:09:16;19.70;94.50
71084;DHT22;58741;52.672;13.548;2022-08-25T07:11:42;19.80;94.50
71084;DHT22;58741;52.672;13.548;2022-08-25T07:14:10;19.80;94.20
71084;DHT22;58741;52.672;13.548;2022-08-25T07:16:37;19.80;94.40
71084;DHT22;58741;52.672;13.548;2022-08-25T07:19:03;19.80;94.40
71084;DHT22;58741;52.672;13.548;2022-08-25T07:21:32;19.90;94.30
71084;DHT22;58741;52.672;13.548;2022-08-25T07:23:58;20.00;94.70
71084;DHT22;58741;52.672;13.548;2022-08-25T07:26:27;20.00;94.50
71084;DHT22;58741;52.672;13.548;2022-08-25T07:28:54;20.00;94.40
71084;DHT22;58741;52.672;13.548;2022-08-25T07:31:20;20.00;94.30
71084;DHT22;58741;52.672;13.548;2022-08-25T07:33:46;20.10;94.30
71084;DHT22;58741;52.672;13.548;2022-08-25T07:36:31;20.10;94.00
71084;DHT22;58741;52.672;13.548;2022-08-25T07:38:58;20.10;94.20
71084;DHT22;58741;52.672;13.548;2022-08-25T07:41:25;20.20;94.30
71084;DHT22;58741;52.672;13.548;2022-08-25T07:43:50;20.20;94.10
71084;DHT22;58741;52.672;13.548;2022-08-25T07:46:16;20.20;94.00
71084;DHT22;58741;52.672;13.548;2022-08-25T07:48:42;20.20;94.30
71084;DHT22;58741;52.672;13.548;2022-08-25T07:51:09;20.30;94.30
71084;DHT22;58741;52.672;13.548;2022-08-25T07:53:35;20.30;94.10
71084;DHT22;58741;52.672;13.548;2022-08-25T07:56:01;20.30;94.00
71084;DHT22;58741;52.672;13.548;2022-08-25T07:58:27;20.40;94.10
71084;DHT22;58741;52.672;13.548;2022-08-25T08:00:53;20.40;94.00
71084;DHT22;58741;52.672;13.548;2022-08-25T08:03:19;20.40;93.90
71084;DHT22;58741;52.672;13.548;2022-08-25T08:05:46;20.50;93.90
71084;DHT22;58741;52.672;13.548;2022-08-25T08:08:11;20.50;93.80
71084;DHT22;58741;52.672;13.548;2022-08-25T08:10:40;20.50;93.70
71084;DHT22;58741;52.672;13.548;2022-08-25T08:13:08;20.60;93.90
71084;DHT22;58741;52.672;13.548;2022-08-25T08:15:35;20.60;93.90
71084;DHT22;58741;52.672;13.548;2022-08-25T08:18:01;20.60;94.00
71084;DHT22;58741;52.672;13.548;2022-08-25T08:20:28;20.70;93.60
71084;DHT22;58741;52.672;13.548;2022-08-25T08:22:55;20.70;93.80
71084;DHT22;58741;52.672;13.548;2022-08-25T08:25:21;20.80;93.90
71084;DHT22;58741;52.672;13.548;2022-08-25T08:27:47;20.80;93.70
71084;DHT22;58741;52.672;13.548;2022-08-25T08:30:13;20.90;93.70
71084;DHT22;58741;52.672;13.548;2022-08-25T08:32:39;21.00;93.40
71084;DHT22;58741;52.672;13.548;2022-08-25T08:35:04;21.00;93.40
71084;DHT22;58741;52.672;13.548;2022-08-25T08:37:31;21.10;93.20
71084;DHT22;58741;52.672;13.548;2022-08-25T08:39:56;21.10;93.10
71084;DHT22;58741;52.672;13.548;2022-08-25T08:42:55;21.20;93.20
71084;DHT22;58741;52.672;13.548;2022-08-25T08:45:35;21.20;93.50
71084;DHT22;58741;52.672;13.548;2022-08-25T08:50:55;21.30;93.20
71084;DHT22;58741;52.672;13.548;2022-08-25T08:53:42;21.40;93.00
71084;DHT22;58741;52.672;13.548;2022-08-25T08:56:14;21.40;92.70
71084;DHT22;58741;52.672;13.548;2022-08-25T08:58:48;21.40;92.90
71084;DHT22;58741;52.672;13.548;2022-08-25T09:01:27;21.50;92.60
71084;DHT22;58741;52.672;13.548;2022-08-25T09:04:12;21.50;92.50
71084;DHT22;58741;52.672;13.548;2022-08-25T09:06:45;21.50;92.80
71084;DHT22;58741;52.672;13.548;2022-08-25T09:09:15;21.60;92.40
71084;DHT22;58741;52.672;13.548;2022-08-25T09:12:19;21.70;92.40
71084;DHT22;58741;52.672;13.548;2022-08-25T09:15:03;21.60;92.10
71084;DHT22;58741;52.672;13.548;2022-08-25T09:20:14;21.70;91.90
71084;DHT22;58741;52.672;13.548;2022-08-25T09:22:57;21.80;92.00
71084;DHT22;58741;52.672;13.548;2022-08-25T09:25:50;21.80;91.80
71084;DHT22;58741;52.672;13.548;2022-08-25T09:28:19;21.90;91.90
71084;DHT22;58741;52.672;13.548;2022-08-25T09:30:52;21.90;92.10
71084;DHT22;58741;52.672;13.548;2022-08-25T09:33:21;22.00;92.10
71084;DHT22;58741;52.672;13.548;2022-08-25T09:35:51;22.10;91.50
71084;DHT22;58741;52.672;13.548;2022-08-25T09:38:16;22.10;91.20
71084;DHT22;58741;52.672;13.548;2022-08-25T09:40:45;22.20;91.30
71084;DHT22;58741;52.672;13.548;2022-08-25T09:43:21;22.30;91.20
71084;DHT22;58741;52.672;13.548;2022-08-25T09:45:54;22.30;91.20
71084;DHT22;58741;52.672;13.548;2022-08-25T09:48:29;22.40;91.00
71084;DHT22;58741;52.672;13.548;2022-08-25T09:51:25;22.50;91.10
71084;DHT22;58741;52.672;13.548;2022-08-25T09:56:26;22.60;91.30
71084;DHT22;58741;52.672;13.548;2022-08-25T09:58:52;22.70;91.00
71084;DHT22;58741;52.672;13.548;2022-08-25T10:01:21;22.80;90.80
71084;DHT22;58741;52.672;13.548;2022-08-25T10:03:59;22.90;90.50
71084;DHT22;58741;52.672;13.548;2022-08-25T10:06:28;23.00;90.20
71084;DHT22;58741;52.672;13.548;2022-08-25T10:08:57;23.10;90.60
71084;DHT22;58741;52.672;13.548;2022-08-25T10:11:34;23.20;90.10
71084;DHT22;58741;52.672;13.548;2022-08-25T10:14:05;23.30;90.00
71084;DHT22;58741;52.672;13.548;2022-08-25T10:16:31;23.40;90.00
71084;DHT22;58741;52.672;13.548;2022-08-25T10:19:27;23.60;89.90
71084;DHT22;58741;52.672;13.548;2022-08-25T10:22:11;23.70;89.40
71084;DHT22;58741;52.672;13.548;2022-08-25T10:24:44;23.90;89.00
71084;DHT22;58741;52.672;13.548;2022-08-25T10:27:27;24.00;87.80
71084;DHT22;58741;52.672;13.548;2022-08-25T10:36:10;24.40;85.50
71084;DHT22;58741;52.672;13.548;2022-08-25T10:38:46;24.60;84.90
71084;DHT22;58741;52.672;13.548;2022-08-25T10:44:32;24.70;83.80
71084;DHT22;58741;52.672;13.548;2022-08-25T10:47:41;24.80;82.90
71084;DHT22;58741;52.672;13.548;2022-08-25T10:50:40;24.80;82.40
71084;DHT22;58741;52.672;13.548;2022-08-25T10:56:16;24.80;82.70
71084;DHT22;58741;52.672;13.548;2022-08-25T10:59:15;24.90;82.80
71084;DHT22;58741;52.672;13.548;2022-08-25T11:07:33;25.20;81.70
71084;DHT22;58741;52.672;13.548;2022-08-25T11:10:12;25.20;81.50
71084;DHT22;58741;52.672;13.548;2022-08-25T11:12:44;25.20;81.30
71084;DHT22;58741;52.672;13.548;2022-08-25T11:15:19;25.30;81.00
71084;DHT22;58741;52.672;13.548;2022-08-25T11:17:56;25.30;80.60
71084;DHT22;58741;52.672;13.548;2022-08-25T11:20:30;25.30;80.70
71084;DHT22;58741;52.672;13.548;2022-08-25T11:23:27;25.30;79.70
71084;DHT22;58741;52.672;13.548;2022-08-25T11:25:59;25.40;80.50
71084;DHT22;58741;52.672;13.548;2022-08-25T11:28:29;25.40;79.80
71084;DHT22;58741;52.672;13.548;2022-08-25T11:30:59;25.40;80.80
71084;DHT22;58741;52.672;13.548;2022-08-25T11:33:28;25.50;80.40
71084;DHT22;58741;52.672;13.548;2022-08-25T11:38:54;25.70;79.70
71084;DHT22;58741;52.672;13.548;2022-08-25T11:55:06;26.00;78.60
71084;DHT22;58741;52.672;13.548;2022-08-25T11:57:35;26.10;78.70
71084;DHT22;58741;52.672;13.548;2022-08-25T12:00:10;26.20;78.00
71084;DHT22;58741;52.672;13.548;2022-08-25T12:02:48;26.40;77.90
71084;DHT22;58741;52.672;13.548;2022-08-25T12:10:19;26.70;77.10
71084;DHT22;58741;52.672;13.548;2022-08-25T12:12:55;26.80;76.40
71084;DHT22;58741;52.672;13.548;2022-08-25T12:15:31;26.90;76.30
71084;DHT22;58741;52.672;13.548;2022-08-25T12:18:07;27.00;76.30
71084;DHT22;58741;52.672;13.548;2022-08-25T12:23:27;27.20;76.30
71084;DHT22;58741;52.672;13.548;2022-08-25T12:25:54;27.30;74.80
71084;DHT22;58741;52.672;13.548;2022-08-25T12:28:39;27.40;73.40
71084;DHT22;58741;52.672;13.548;2022-08-25T12:37:29;27.60;73.80
71084;DHT22;58741;52.672;13.548;2022-08-25T12:39:59;27.50;71.40
71084;DHT22;58741;52.672;13.548;2022-08-25T12:42:40;27.50;71.80
71084;DHT22;58741;52.672;13.548;2022-08-25T12:47:51;27.40;73.40
71084;DHT22;58741;52.672;13.548;2022-08-25T12:56:24;27.60;73.30
71084;DHT22;58741;52.672;13.548;2022-08-25T13:01:52;27.70;71.00
71084;DHT22;58741;52.672;13.548;2022-08-25T13:07:33;27.70;72.20
71084;DHT22;58741;52.672;13.548;2022-08-25T13:10:19;27.80;71.40
71084;DHT22;58741;52.672;13.548;2022-08-25T13:13:14;27.80;71.70
71084;DHT22;58741;52.672;13.548;2022-08-25T13:15:47;27.80;71.20
71084;DHT22;58741;52.672;13.548;2022-08-25T13:18:30;27.80;71.40
71084;DHT22;58741;52.672;13.548;2022-08-25T13:23:49;27.90;71.90
71084;DHT22;58741;52.672;13.548;2022-08-25T13:26:28;28.00;69.60
71084;DHT22;58741;52.672;13.548;2022-08-25T13:28:59;28.10;69.00
71084;DHT22;58741;52.672;13.548;2022-08-25T13:31:25;28.20;69.40
71084;DHT22;58741;52.672;13.548;2022-08-25T13:34:03;28.20;69.10
71084;DHT22;58741;52.672;13.548;2022-08-25T13:36:40;28.20;68.70
71084;DHT22;58741;52.672;13.548;2022-08-25T13:39:26;28.20;69.00
71084;DHT22;58741;52.672;13.548;2022-08-25T13:41:54;28.30;69.00
71084;DHT22;58741;52.672;13.548;2022-08-25T13:44:22;28.40;69.60
71084;DHT22;58741;52.672;13.548;2022-08-25T13:47:15;28.40;68.80
71084;DHT22;58741;52.672;13.548;2022-08-25T13:49:44;28.40;68.20
71084;DHT22;58741;52.672;13.548;2022-08-25T13:52:27;28.50;68.30
71084;DHT22;58741;52.672;13.548;2022-08-25T13:54:58;28.50;67.90
71084;DHT22;58741;52.672;13.548;2022-08-25T13:57:26;28.50;67.90
71084;DHT22;58741;52.672;13.548;2022-08-25T13:59:56;28.60;68.00
71084;DHT22;58741;52.672;13.548;2022-08-25T14:02:46;28.60;67.50
71084;DHT22;58741;52.672;13.548;2022-08-25T14:05:16;28.60;68.70
71084;DHT22;58741;52.672;13.548;2022-08-25T14:07:54;28.60;68.20
71084;DHT22;58741;52.672;13.548;2022-08-25T14:13:29;28.70;67.20
71084;DHT22;58741;52.672;13.548;2022-08-25T14:16:11;28.70;66.20
71084;DHT22;58741;52.672;13.548;2022-08-25T14:18:39;28.70;65.70
71084;DHT22;58741;52.672;13.548;2022-08-25T14:21:10;28.60;65.10
71084;DHT22;58741;52.672;13.548;2022-08-25T14:23:37;28.50;65.50
71084;DHT22;58741;52.672;13.548;2022-08-25T14:26:03;28.40;65.70
71084;DHT22;58741;52.672;13.548;2022-08-25T14:28:30;28.30;65.70
71084;DHT22;58741;52.672;13.548;2022-08-25T14:31:04;28.10;66.30
71084;DHT22;58741;52.672;13.548;2022-08-25T14:33:35;28.10;67.30
71084;DHT22;58741;52.672;13.548;2022-08-25T14:36:02;28.10;68.10
71084;DHT22;58741;52.672;13.548;2022-08-25T14:38:29;28.10;67.50
71084;DHT22;58741;52.672;13.548;2022-08-25T14:40:55;28.20;66.40
71084;DHT22;58741;52.672;13.548;2022-08-25T14:43:20;28.20;66.30
71084;DHT22;58741;52.672;13.548;2022-08-25T14:45:47;28.20;66.10
71084;DHT22;58741;52.672;13.548;2022-08-25T14:48:39;28.20;66.20
71084;DHT22;58741;52.672;13.548;2022-08-25T14:51:06;28.20;67.20
71084;DHT22;58741;52.672;13.548;2022-08-25T14:53:32;28.20;67.10
71084;DHT22;58741;52.672;13.548;2022-08-25T14:55:57;28.20;66.60
71084;DHT22;58741;52.672;13.548;2022-08-25T14:58:23;28.20;67.30
71084;DHT22;58741;52.672;13.548;2022-08-25T15:00:49;28.20;67.80
71084;DHT22;58741;52.672;13.548;2022-08-25T15:03:18;28.20;65.70
71084;DHT22;58741;52.672;13.548;2022-08-25T15:05:45;28.20;65.70
71084;DHT22;58741;52.672;13.548;2022-08-25T15:08:11;28.20;66.50
71084;DHT22;58741;52.672;13.548;2022-08-25T15:10:55;28.20;66.30
71084;DHT22;58741;52.672;13.548;2022-08-25T15:13:21;28.30;66.80
71084;DHT22;58741;52.672;13.548;2022-08-25T15:15:47;28.20;67.10
71084;DHT22;58741;52.672;13.548;2022-08-25T15:18:13;28.30;67.30
71084;DHT22;58741;52.672;13.548;2022-08-25T15:20:41;28.30;67.20
71084;DHT22;58741;52.672;13.548;2022-08-25T15:23:06;28.40;67.10
71084;DHT22;58741;52.672;13.548;2022-08-25T15:25:33;28.40;66.40
71084;DHT22;58741;52.672;13.548;2022-08-25T15:28:02;28.50;66.80
71084;DHT22;58741;52.672;13.548;2022-08-25T15:30:28;28.60;66.60
71084;DHT22;58741;52.672;13.548;2022-08-25T15:32:54;28.70;66.90
71084;DHT22;58741;52.672;13.548;2022-08-25T15:35:19;28.70;67.00
71084;DHT22;58741;52.672;13.548;2022-08-25T15:37:45;28.80;67.20
71084;DHT22;58741;52.672;13.548;2022-08-25T15:40:12;28.80;64.60
71084;DHT22;58741;52.672;13.548;2022-08-25T15:42:38;28.70;63.80
71084;DHT22;58741;52.672;13.548;2022-08-25T15:45:04;28.70;65.60
71084;DHT22;58741;52.672;13.548;2022-08-25T15:47:30;28.60;65.60
71084;DHT22;58741;52.672;13.548;2022-08-25T15:50:03;28.70;65.10
71084;DHT22;58741;52.672;13.548;2022-08-25T15:52:29;28.70;65.60
71084;DHT22;58741;52.672;13.548;2022-08-25T15:54:55;28.80;65.50
71084;DHT22;58741;52.672;13.548;2022-08-25T15:57:21;28.80;65.20
71084;DHT22;58741;52.672;13.548;2022-08-25T15:59:47;28.80;64.80
71084;DHT22;58741;52.672;13.548;2022-08-25T16:02:12;28.90;64.10
71084;DHT22;58741;52.672;13.548;2022-08-25T16:04:38;28.80;63.40
71084;DHT22;58741;52.672;13.548;2022-08-25T16:07:03;28.80;63.50
71084;DHT22;58741;52.672;13.548;2022-08-25T16:09:29;28.80;63.90
71084;DHT22;58741;52.672;13.548;2022-08-25T16:11:55;28.70;63.90
71084;DHT22;58741;52.672;13.548;2022-08-25T16:14:21;28.60;64.30
71084;DHT22;58741;52.672;13.548;2022-08-25T16:16:47;28.60;63.70
71084;DHT22;58741;52.672;13.548;2022-08-25T16:19:12;28.50;64.20
71084;DHT22;58741;52.672;13.548;2022-08-25T16:21:40;28.30;63.70
71084;DHT22;58741;52.672;13.548;2022-08-25T16:24:06;28.30;64.10
71084;DHT22;58741;52.672;13.548;2022-08-25T16:26:32;28.10;64.10
71084;DHT22;58741;52.672;13.548;2022-08-25T16:28:58;28.10;64.80
71084;DHT22;58741;52.672;13.548;2022-08-25T16:31:24;27.90;64.90
71084;DHT22;58741;52.672;13.548;2022-08-25T16:33:50;27.80;65.10
71084;DHT22;58741;52.672;13.548;2022-08-25T16:36:19;27.70;65.30
71084;DHT22;58741;52.672;13.548;2022-08-25T16:38:46;27.60;65.20
71084;DHT22;58741;52.672;13.548;2022-08-25T16:41:14;27.50;65.20
71084;DHT22;58741;52.672;13.548;2022-08-25T16:43:41;27.40;65.80
71084;DHT22;58741;52.672;13.548;2022-08-25T16:46:10;27.30;65.70
71084;DHT22;58741;52.672;13.548;2022-08-25T16:48:37;27.20;65.80